Time,TemperatureF,DewpointF,PressureIn,WindDirection,WindDirectionDegrees,WindSpeedMPH,WindSpeedGustMPH,Humidity,HourlyPrecipIn,Conditions,Clouds,dailyrainin,SolarRadiationWatts/m^2,SoftwareType,DateUTC
2013-02-12 00:12:00,24.0,20.0,-100.00,SW,214,2.0,4.0,86,0.00,,,-99.99,0.000000,,2013-02-12 06:12:00,
2013-02-12 00:21:00,24.0,20.0,-100.00,SW,214,2.0,4.0,86,0.00,,,-99.99,0.000000,,2013-02-12 06:21:00,
2013-02-12 00:32:00,24.0,20.0,-100.00,SW,214,2.0,4.0,86,0.00,,,-99.99,0.000000,,2013-02-12 06:32:00,
2013-02-12 00:42:00,24.0,20.0,-100.00,SW,214,2.0,4.0,86,0.00,,,-99.99,0.000000,,2013-02-12 06:42:00,
2013-02-12 01:11:00,22.0,19.0,-100.00,SW,218,3.0,4.0,88,0.00,,,0.00,0.000000,,2013-02-12 07:11:00,
2013-02-12 01:21:00,22.0,19.0,-100.00,SW,218,3.0,4.0,88,0.00,,,0.00,0.000000,,2013-02-12 07:21:00,
2013-02-12 01:31:00,22.0,19.0,-100.00,SW,218,3.0,4.0,88,0.00,,,0.00,0.000000,,2013-02-12 07:31:00,
2013-02-12 01:41:00,22.0,19.0,-100.00,SW,218,3.0,4.0,88,0.00,,,0.00,0.000000,,2013-02-12 07:41:00,
2013-02-12 02:11:00,22.0,20.0,-100.00,SSW,208,3.0,4.0,93,0.00,,,-99.99,0.000000,,2013-02-12 08:11:00,
2013-02-12 02:21:00,22.0,20.0,-100.00,SSW,208,3.0,4.0,93,0.00,,,-99.99,0.000000,,2013-02-12 08:21:00,
2013-02-12 02:32:00,22.0,20.0,-100.00,SSW,208,3.0,4.0,93,0.00,,,-99.99,0.000000,,2013-02-12 08:32:00,
2013-02-12 02:41:00,22.0,20.0,-100.00,SSW,208,3.0,4.0,93,0.00,,,-99.99,0.000000,,2013-02-12 08:41:00,
2013-02-12 03:11:00,21.0,19.0,-100.00,SSE,164,0.0,4.0,93,0.00,,,0.00,0.000000,,2013-02-12 09:11:00,
2013-02-12 03:21:00,21.0,19.0,-100.00,SSE,164,0.0,4.0,93,0.00,,,0.00,0.000000,,2013-02-12 09:21:00,
2013-02-12 03:32:00,21.0,19.0,-100.00,SSE,164,0.0,4.0,93,0.00,,,0.00,0.000000,,2013-02-12 09:32:00,
2013-02-12 03:42:00,21.0,19.0,-100.00,SSE,164,0.0,4.0,93,0.00,,,0.00,0.000000,,2013-02-12 09:42:00,
2013-02-12 04:11:00,19.0,18.0,-100.00,SE,142,1.0,2.0,97,0.00,,,0.00,0.000000,,2013-02-12 10:11:00,
2013-02-12 04:21:00,19.0,18.0,-100.00,SE,142,1.0,2.0,97,0.00,,,0.00,0.000000,,2013-02-12 10:21:00,
2013-02-12 04:32:00,19.0,18.0,-100.00,SE,142,1.0,2.0,97,0.00,,,0.00,0.000000,,2013-02-12 10:32:00,
2013-02-12 04:43:00,19.0,18.0,-100.00,SE,142,1.0,2.0,97,0.00,,,0.00,0.000000,,2013-02-12 10:43:00,
2013-02-12 05:11:00,19.0,19.0,-100.00,South,188,1.0,4.0,98,0.00,,,0.00,0.000000,,2013-02-12 11:11:00,
2013-02-12 05:22:00,19.0,19.0,-100.00,South,188,1.0,4.0,98,0.00,,,0.00,0.000000,,2013-02-12 11:22:00,
2013-02-12 05:32:00,19.0,19.0,-100.00,South,188,1.0,4.0,98,0.00,,,0.00,0.000000,,2013-02-12 11:32:00,
2013-02-12 05:41:00,19.0,19.0,-100.00,South,188,1.0,4.0,98,0.00,,,0.00,0.000000,,2013-02-12 11:41:00,
2013-02-12 06:11:00,20.0,19.0,-100.00,SE,146,2.0,5.0,97,0.00,,,0.00,0.000000,,2013-02-12 12:11:00,
2013-02-12 06:21:00,20.0,19.0,-100.00,SE,146,2.0,5.0,97,0.00,,,0.00,0.000000,,2013-02-12 12:21:00,
2013-02-12 06:32:00,20.0,19.0,-100.00,SE,146,2.0,5.0,97,0.00,,,0.00,0.000000,,2013-02-12 12:32:00,
2013-02-12 06:42:00,20.0,19.0,-100.00,SE,146,2.0,5.0,97,0.00,,,0.00,0.000000,,2013-02-12 12:42:00,
2013-02-12 07:11:00,23.0,21.0,-100.00,South,183,4.0,7.0,92,0.00,,,0.00,0.000000,,2013-02-12 13:11:00,
2013-02-12 07:22:00,23.0,21.0,-100.00,South,183,4.0,7.0,92,0.00,,,0.00,0.000000,,2013-02-12 13:22:00,
2013-02-12 07:32:00,23.0,21.0,-100.00,South,183,4.0,7.0,92,0.00,,,0.00,0.000000,,2013-02-12 13:32:00,
2013-02-12 07:42:00,23.0,21.0,-100.00,South,183,4.0,7.0,92,0.00,,,0.00,0.000000,,2013-02-12 13:42:00,
2013-02-12 08:12:00,25.0,22.0,-100.00,South,189,7.0,11.0,87,0.00,,,0.00,5.000000,,2013-02-12 14:12:00,
2013-02-12 08:21:00,25.0,22.0,-100.00,South,189,7.0,11.0,87,0.00,,,0.00,5.000000,,2013-02-12 14:21:00,
2013-02-12 08:32:00,25.0,22.0,-100.00,South,189,7.0,11.0,87,0.00,,,0.00,5.000000,,2013-02-12 14:32:00,
2013-02-12 08:42:00,25.0,22.0,-100.00,South,189,7.0,11.0,87,0.00,,,0.00,5.000000,,2013-02-12 14:42:00,
2013-02-12 09:11:00,29.0,23.0,-100.00,SSW,209,4.0,10.0,77,0.00,,,0.00,80.000000,,2013-02-12 15:11:00,
2013-02-12 09:21:00,29.0,23.0,-100.00,SSW,209,4.0,10.0,77,0.00,,,0.00,80.000000,,2013-02-12 15:21:00,
2013-02-12 09:32:00,29.0,23.0,-100.00,SSW,209,4.0,10.0,77,0.00,,,0.00,80.000000,,2013-02-12 15:32:00,
2013-02-12 09:42:00,29.0,23.0,-100.00,SSW,209,4.0,10.0,77,0.00,,,0.00,80.000000,,2013-02-12 15:42:00,
2013-02-12 10:11:00,35.0,24.0,-100.00,SSW,195,8.0,15.0,64,0.00,,,0.00,314.000000,,2013-02-12 16:11:00,
2013-02-12 10:22:00,35.0,24.0,-100.00,SSW,195,8.0,15.0,64,0.00,,,0.00,314.000000,,2013-02-12 16:22:00,
2013-02-12 10:32:00,35.0,24.0,-100.00,SSW,195,8.0,15.0,64,0.00,,,0.00,314.000000,,2013-02-12 16:32:00,
2013-02-12 10:41:00,35.0,24.0,-100.00,SSW,195,8.0,15.0,64,0.00,,,0.00,314.000000,,2013-02-12 16:41:00,
2013-02-12 11:12:00,38.0,22.0,-100.00,WSW,243,8.0,14.0,51,0.00,,,0.00,498.000000,,2013-02-12 17:12:00,
2013-02-12 11:21:00,38.0,22.0,-100.00,WSW,243,8.0,14.0,51,0.00,,,0.00,498.000000,,2013-02-12 17:21:00,
2013-02-12 11:32:00,38.0,22.0,-100.00,WSW,243,8.0,14.0,51,0.00,,,0.00,498.000000,,2013-02-12 17:32:00,
2013-02-12 11:42:00,38.0,22.0,-100.00,WSW,243,8.0,14.0,51,0.00,,,0.00,498.000000,,2013-02-12 17:42:00,
2013-02-12 12:11:00,43.0,24.0,-100.00,SW,224,8.0,16.0,46,0.00,,,0.00,645.000000,,2013-02-12 18:11:00,
2013-02-12 12:23:00,43.0,24.0,-100.00,SW,224,8.0,16.0,46,0.00,,,0.00,645.000000,,2013-02-12 18:23:00,
2013-02-12 12:32:00,43.0,24.0,-100.00,SW,224,8.0,16.0,46,0.00,,,0.00,645.000000,,2013-02-12 18:32:00,
2013-02-12 12:41:00,43.0,24.0,-100.00,SW,224,8.0,16.0,46,0.00,,,0.00,645.000000,,2013-02-12 18:41:00,
2013-02-12 13:11:00,46.0,25.0,-100.00,WSW,240,9.0,17.0,43,0.00,,,0.00,730.000000,,2013-02-12 19:11:00,
2013-02-12 13:21:00,46.0,25.0,-100.00,WSW,240,9.0,17.0,43,0.00,,,0.00,730.000000,,2013-02-12 19:21:00,
2013-02-12 13:31:00,46.0,25.0,-100.00,WSW,240,9.0,17.0,43,0.00,,,0.00,730.000000,,2013-02-12 19:31:00,
2013-02-12 13:41:00,46.0,25.0,-100.00,WSW,240,9.0,17.0,43,0.00,,,0.00,730.000000,,2013-02-12 19:41:00,
2013-02-12 14:11:00,49.0,25.0,-100.00,SW,230,9.0,18.0,38,0.00,,,0.00,746.000000,,2013-02-12 20:11:00,
2013-02-12 14:21:00,49.0,25.0,-100.00,SW,230,9.0,18.0,38,0.00,,,0.00,746.000000,,2013-02-12 20:21:00,
2013-02-12 14:32:00,49.0,25.0,-100.00,SW,230,9.0,18.0,38,0.00,,,0.00,746.000000,,2013-02-12 20:32:00,
2013-02-12 14:41:00,49.0,25.0,-100.00,SW,230,9.0,18.0,38,0.00,,,0.00,746.000000,,2013-02-12 20:41:00,
2013-02-12 15:11:00,50.0,23.0,-100.00,SW,222,9.0,18.0,35,0.00,,,0.00,685.000000,,2013-02-12 21:11:00,
2013-02-12 15:21:00,50.0,23.0,-100.00,SW,222,9.0,18.0,35,0.00,,,0.00,685.000000,,2013-02-12 21:21:00,
2013-02-12 15:31:00,50.0,23.0,-100.00,SW,222,9.0,18.0,35,0.00,,,0.00,685.000000,,2013-02-12 21:31:00,
2013-02-12 15:42:00,50.0,23.0,-100.00,SW,222,9.0,18.0,35,0.00,,,0.00,685.000000,,2013-02-12 21:42:00,
2013-02-12 16:12:00,51.0,18.0,-100.00,WSW,258,7.0,16.0,27,0.00,,,0.00,554.000000,,2013-02-12 22:12:00,
2013-02-12 16:21:00,51.0,18.0,-100.00,WSW,258,7.0,16.0,27,0.00,,,0.00,554.000000,,2013-02-12 22:21:00,
2013-02-12 16:32:00,51.0,18.0,-100.00,WSW,258,7.0,16.0,27,0.00,,,0.00,554.000000,,2013-02-12 22:32:00,
2013-02-12 16:42:00,51.0,18.0,-100.00,WSW,258,7.0,16.0,27,0.00,,,0.00,554.000000,,2013-02-12 22:42:00,
2013-02-12 17:11:00,50.0,20.0,-100.00,WSW,247,6.0,16.0,30,0.00,,,0.00,365.000000,,2013-02-12 23:11:00,
2013-02-12 17:21:00,50.0,20.0,-100.00,WSW,247,6.0,16.0,30,0.00,,,0.00,365.000000,,2013-02-12 23:21:00,
2013-02-12 17:32:00,50.0,20.0,-100.00,WSW,247,6.0,16.0,30,0.00,,,0.00,365.000000,,2013-02-12 23:32:00,
2013-02-12 17:42:00,50.0,20.0,-100.00,WSW,247,6.0,16.0,30,0.00,,,0.00,365.000000,,2013-02-12 23:42:00,
2013-02-12 18:11:00,45.0,18.0,-100.00,West,279,2.0,10.0,33,0.00,,,0.00,140.000000,,2013-02-13 00:11:00,
2013-02-12 18:21:00,45.0,18.0,-100.00,West,279,2.0,10.0,33,0.00,,,0.00,140.000000,,2013-02-13 00:21:00,
2013-02-12 18:32:00,45.0,18.0,-100.00,West,279,2.0,10.0,33,0.00,,,0.00,140.000000,,2013-02-13 00:32:00,
2013-02-12 18:42:00,45.0,18.0,-100.00,West,279,2.0,10.0,33,0.00,,,0.00,140.000000,,2013-02-13 00:42:00,
2013-02-12 19:42:00,36.0,17.0,-100.00,NW,307,3.0,5.0,45,0.00,,,0.00,2.000000,,2013-02-13 01:42:00,
2013-02-12 20:11:00,34.0,18.0,-100.00,WNW,292,2.0,6.0,52,0.00,,,0.00,0.000000,,2013-02-13 02:11:00,
2013-02-12 20:22:00,34.0,18.0,-100.00,WNW,292,2.0,6.0,52,0.00,,,0.00,0.000000,,2013-02-13 02:22:00,
2013-02-12 20:31:00,34.0,18.0,-100.00,WNW,292,2.0,6.0,52,0.00,,,0.00,0.000000,,2013-02-13 02:31:00,
2013-02-12 20:41:00,34.0,18.0,-100.00,WNW,292,2.0,6.0,52,0.00,,,0.00,0.000000,,2013-02-13 02:41:00,
2013-02-12 21:11:00,32.0,21.0,-100.00,NW,324,2.0,8.0,64,0.00,,,0.00,0.000000,,2013-02-13 03:11:00,
2013-02-12 21:21:00,32.0,21.0,-100.00,NW,324,2.0,8.0,64,0.00,,,0.00,0.000000,,2013-02-13 03:21:00,
2013-02-12 21:32:00,32.0,21.0,-100.00,NW,324,2.0,8.0,64,0.00,,,0.00,0.000000,,2013-02-13 03:32:00,
2013-02-12 21:41:00,32.0,21.0,-100.00,NW,324,2.0,8.0,64,0.00,,,0.00,0.000000,,2013-02-13 03:41:00,
2013-02-12 22:11:00,29.0,22.0,-100.00,West,275,2.0,3.0,75,0.00,,,0.00,0.000000,,2013-02-13 04:11:00,
2013-02-12 22:21:00,29.0,22.0,-100.00,West,275,2.0,3.0,75,0.00,,,0.00,0.000000,,2013-02-13 04:21:00,
2013-02-12 22:32:00,29.0,22.0,-100.00,West,275,2.0,3.0,75,0.00,,,0.00,0.000000,,2013-02-13 04:32:00,
2013-02-12 22:41:00,29.0,22.0,-100.00,West,275,2.0,3.0,75,0.00,,,0.00,0.000000,,2013-02-13 04:41:00,
2013-02-12 23:11:00,29.0,23.0,-100.00,WSW,245,2.0,3.0,79,0.00,,,0.00,0.000000,,2013-02-13 05:11:00,
2013-02-12 23:22:00,29.0,23.0,-100.00,WSW,245,2.0,3.0,79,0.00,,,0.00,0.000000,,2013-02-13 05:22:00,
2013-02-12 23:31:00,29.0,23.0,-100.00,WSW,245,2.0,3.0,79,0.00,,,0.00,0.000000,,2013-02-13 05:31:00,
2013-02-12 23:42:00,29.0,23.0,-100.00,WSW,245,2.0,3.0,79,0.00,,,0.00,0.000000,,2013-02-13 05:42:00,